createdAt,value
2019-04-06T00:01:53.069Z,99425.84
2019-04-06T00:04:22.301Z,99426.80
2019-04-06T00:06:51.460Z,99424.58
2019-04-06T00:09:20.674Z,99417.19
2019-04-06T00:11:49.890Z,99418.95
2019-04-06T00:14:19.102Z,99418.80
2019-04-06T00:16:48.257Z,99415.80
2019-04-06T00:19:17.394Z,99413.17
2019-04-06T00:21:46.547Z,99408.37
2019-04-06T00:24:15.726Z,99339.14
2019-04-06T00:26:44.885Z,99417.16
2019-04-06T00:29:14.065Z,99409.27
2019-04-06T00:32:00.930Z,99418.48
2019-04-06T00:34:30.150Z,99426.38
2019-04-06T00:36:59.305Z,99409.30
2019-04-06T00:39:28.479Z,99415.39
2019-04-06T00:41:57.657Z,99418.44
2019-04-06T00:44:26.829Z,99416.69
2019-04-06T00:46:55.982Z,99414.91
2019-04-06T00:49:25.147Z,99414.42
2019-04-06T00:51:54.286Z,99419.69
2019-04-06T00:54:23.470Z,99418.81
2019-04-06T00:56:52.605Z,99424.95
2019-04-06T00:59:21.797Z,99417.94
2019-04-06T01:01:50.999Z,99419.67
2019-04-06T01:04:20.155Z,99417.91
2019-04-06T01:06:49.347Z,99421.42
2019-04-06T01:09:18.690Z,99415.72
2019-04-06T01:11:47.821Z,99413.53
2019-04-06T01:14:17.047Z,99416.16
2019-04-06T01:16:46.233Z,99413.52
2019-04-06T01:19:15.399Z,99416.13
2019-04-06T01:21:44.550Z,99420.09
2019-04-06T01:24:13.710Z,99422.75
2019-04-06T01:26:42.865Z,99421.85
2019-04-06T01:29:12.023Z,99425.36
2019-04-06T01:31:41.185Z,99363.92
2019-04-06T01:34:10.392Z,99422.28
2019-04-06T01:36:39.552Z,99421.39
2019-04-06T01:39:09.207Z,99417.03
2019-04-06T01:41:38.361Z,99418.80
2019-04-06T01:44:07.650Z,99411.33
2019-04-06T01:46:36.771Z,99406.89
2019-04-06T01:49:05.928Z,99414.37
2019-04-06T01:51:35.075Z,99406.02
2019-04-06T01:54:04.224Z,99408.73
2019-04-06T01:56:33.516Z,99407.41
2019-04-06T01:59:02.652Z,99416.61
2019-04-06T02:01:45.402Z,99410.53
2019-04-06T02:04:14.599Z,99411.78
2019-04-06T02:06:43.738Z,99407.89
2019-04-06T02:09:12.903Z,99406.58
2019-04-06T02:11:42.242Z,99408.78
2019-04-06T02:14:11.387Z,99405.75
2019-04-06T02:16:40.671Z,99409.75
2019-04-06T02:19:09.848Z,99408.83
2019-04-06T02:21:38.955Z,99411.92
2019-04-06T02:24:08.105Z,99409.73
2019-04-06T02:26:37.289Z,99400.06
2019-04-06T02:29:06.445Z,99407.80
2019-04-06T02:31:57.973Z,99403.46
2019-04-06T02:34:46.196Z,99403.09
2019-04-06T02:37:49.903Z,99401.34
2019-04-06T02:40:38.123Z,99403.56
2019-04-06T02:43:13.741Z,99411.86
2019-04-06T02:45:42.907Z,99406.63
2019-04-06T02:48:12.059Z,99408.81
2019-04-06T02:50:41.197Z,99402.64
2019-04-06T02:53:10.381Z,99401.34
2019-04-06T02:55:39.542Z,99399.56
2019-04-06T02:58:08.790Z,99399.94
2019-04-06T03:00:37.946Z,99392.93
2019-04-06T03:03:07.111Z,99396.88
2019-04-06T03:05:36.440Z,99398.59
2019-04-06T03:08:05.918Z,99399.92
2019-04-06T03:10:35.098Z,99403.02
2019-04-06T03:13:04.470Z,99399.05
2019-04-06T03:15:33.706Z,99402.08
2019-04-06T03:18:02.871Z,99410.73
2019-04-06T03:20:32.055Z,99409.44
2019-04-06T03:23:01.225Z,99408.55
2019-04-06T03:25:30.439Z,99405.56
2019-04-06T03:27:59.609Z,99403.34
2019-04-06T03:30:29.310Z,99406.05
2019-04-06T03:32:58.489Z,99403.77
2019-04-06T03:35:27.793Z,99402.45
2019-04-06T03:37:57.262Z,99397.27
2019-04-06T03:40:26.432Z,99394.19
2019-04-06T03:42:55.825Z,99392.78
2019-04-06T03:45:25.021Z,99403.31
2019-04-06T03:47:54.269Z,99401.98
2019-04-06T03:50:23.411Z,99410.73
2019-04-06T03:52:52.870Z,99402.42
2019-04-06T03:55:22.020Z,99402.85
2019-04-06T03:57:51.180Z,99405.56
2019-04-06T04:00:20.357Z,99402.48
2019-04-06T04:02:49.530Z,99401.69
2019-04-06T04:05:18.633Z,99402.12
2019-04-06T04:07:47.788Z,99402.14
2019-04-06T04:10:32.411Z,99404.39
2019-04-06T04:13:01.578Z,99408.27
2019-04-06T04:15:30.758Z,99406.06
2019-04-06T04:17:59.927Z,99398.69
2019-04-06T04:20:29.133Z,99389.41
2019-04-06T04:22:58.238Z,99392.47
2019-04-06T04:25:27.407Z,99392.53
2019-04-06T04:27:56.671Z,99390.83
2019-04-06T04:30:32.820Z,99389.52
2019-04-06T04:32:56.830Z,99400.51
2019-04-06T04:35:25.983Z,99403.59
2019-04-06T04:37:55.305Z,99401.94
2019-04-06T04:40:24.536Z,99398.53
2019-04-06T04:42:53.742Z,99407.63
2019-04-06T04:45:22.880Z,99415.10
2019-04-06T04:47:52.060Z,99425.25
2019-04-06T04:50:21.299Z,99415.55
2019-04-06T04:52:50.600Z,99425.19
2019-04-06T04:55:19.732Z,99425.16
2019-04-06T04:57:48.884Z,99430.89
2019-04-06T05:00:18.036Z,99423.86
2019-04-06T05:02:47.211Z,99417.75
2019-04-06T05:05:16.364Z,99429.66
2019-04-06T05:07:45.498Z,99431.43
2019-04-06T05:10:14.876Z,99429.69
2019-04-06T05:12:43.994Z,99440.12
2019-04-06T05:15:15.963Z,99431.83
2019-04-06T05:17:45.163Z,99439.30
2019-04-06T05:20:14.566Z,99437.09
2019-04-06T05:22:43.648Z,99434.91
2019-04-06T05:25:12.793Z,99439.20
2019-04-06T05:27:51.260Z,99434.86
2019-04-06T05:30:12.901Z,99434.36
2019-04-06T05:32:42.027Z,99435.17
2019-04-06T05:35:31.786Z,99431.27
2019-04-06T05:38:02.426Z,99438.75
2019-04-06T05:40:31.618Z,99439.16
2019-04-06T05:43:00.780Z,99441.77
2019-04-06T05:45:29.977Z,99447.03
2019-04-06T05:47:59.250Z,99443.95
2019-04-06T05:50:28.588Z,99286.59
2019-04-06T05:52:57.855Z,99445.19
2019-04-06T05:55:27.095Z,99449.92
2019-04-06T05:58:03.493Z,99449.92
2019-04-06T06:00:27.513Z,99454.67
2019-04-06T06:02:56.806Z,99460.77
2019-04-06T06:05:25.957Z,99460.81
2019-04-06T06:07:55.080Z,99466.91
2019-04-06T06:10:24.343Z,99470.86
2019-04-06T06:12:53.531Z,99466.44
2019-04-06T06:15:22.658Z,99465.06
2019-04-06T06:17:51.874Z,99468.58
2019-04-06T06:20:21.500Z,99469.83
2019-04-06T06:22:50.620Z,99471.58
2019-04-06T06:25:19.773Z,99467.17
2019-04-06T06:27:48.919Z,99466.72
2019-04-06T06:30:18.073Z,99466.66
2019-04-06T06:32:47.237Z,99466.63
2019-04-06T06:35:16.572Z,99462.58
2019-04-06T06:37:45.780Z,99462.05
2019-04-06T06:40:35.537Z,99464.81
2019-04-06T06:43:04.746Z,99460.30
2019-04-06T06:45:33.880Z,99459.04
2019-04-06T06:48:03.197Z,99455.15
2019-04-06T06:50:34.314Z,99448.59
2019-04-06T06:53:03.175Z,99444.53
2019-04-06T06:55:32.574Z,99445.00
2019-04-06T06:58:01.666Z,99448.16
2019-04-06T07:00:30.830Z,99447.91
2019-04-06T07:02:59.980Z,99444.22
2019-04-06T07:05:29.277Z,99447.76
2019-04-06T07:07:58.444Z,99443.53
2019-04-06T07:10:27.616Z,99445.03
2019-04-06T07:12:57.107Z,99441.16
2019-04-06T07:15:26.214Z,99441.12
2019-04-06T07:17:55.516Z,99447.28
2019-04-06T07:20:24.769Z,99447.47
2019-04-06T07:22:53.952Z,99449.28
2019-04-06T07:25:23.171Z,99449.55
2019-04-06T07:27:52.483Z,99460.56
2019-04-06T07:30:21.835Z,99451.73
2019-04-06T07:32:50.993Z,99449.99
2019-04-06T07:35:20.150Z,99378.08
2019-04-06T07:37:49.420Z,99459.46
2019-04-06T07:40:19.509Z,99458.27
2019-04-06T07:42:48.688Z,99457.55
2019-04-06T07:45:17.834Z,99452.96
2019-04-06T07:47:47.240Z,99451.34
2019-04-06T07:50:17.606Z,99447.13
2019-04-06T07:52:46.783Z,99455.87
2019-04-06T07:55:16.175Z,99453.38
2019-04-06T07:57:45.302Z,99457.84
2019-04-06T08:00:14.545Z,99457.69
2019-04-06T08:02:43.824Z,99445.75
2019-04-06T08:05:12.959Z,99447.31
2019-04-06T08:07:42.171Z,99439.12
2019-04-06T08:10:11.449Z,99441.83
2019-04-06T08:12:40.673Z,99446.90
2019-04-06T08:15:10.048Z,99448.38
2019-04-06T08:17:39.189Z,99454.88
2019-04-06T08:20:08.981Z,99446.06
2019-04-06T08:22:38.151Z,99446.58
2019-04-06T08:25:08.077Z,99444.14
2019-04-06T08:27:37.305Z,99446.11
2019-04-06T08:30:07.988Z,99447.89
2019-04-06T08:32:37.143Z,99446.66
2019-04-06T08:35:06.817Z,99443.16
2019-04-06T08:37:35.983Z,99440.22
2019-04-06T08:40:05.975Z,99437.61
2019-04-06T08:42:35.099Z,99432.25
2019-04-06T08:45:05.247Z,99431.97
2019-04-06T08:47:34.409Z,99430.67
2019-04-06T08:50:03.619Z,99428.42
2019-04-06T08:52:33.060Z,99434.89
2019-04-06T08:55:02.141Z,99432.43
2019-04-06T08:57:31.312Z,99436.31
2019-04-06T09:00:00.737Z,99434.25
2019-04-06T09:02:29.943Z,99432.82
2019-04-06T09:05:18.309Z,99431.70
2019-04-06T09:07:47.470Z,99435.76
2019-04-06T09:10:16.601Z,99436.66
2019-04-06T09:12:45.761Z,99436.12
2019-04-06T09:15:17.281Z,99435.20
2019-04-06T09:17:46.502Z,99437.81
2019-04-06T09:20:15.627Z,99430.27
2019-04-06T09:22:44.765Z,99434.42
2019-04-06T09:25:13.916Z,99426.65
2019-04-06T09:27:43.215Z,99424.89
2019-04-06T09:30:12.594Z,99425.23
2019-04-06T09:32:41.714Z,99422.33
2019-04-06T09:35:10.872Z,99429.63
2019-04-06T09:37:40.046Z,99421.51
2019-04-06T09:40:11.383Z,99431.29
2019-04-06T09:42:40.516Z,99417.37
2019-04-06T09:45:17.037Z,99412.97
2019-04-06T09:47:54.656Z,99413.48
2019-04-06T09:50:57.821Z,99408.05
2019-04-06T09:54:05.035Z,99408.44
2019-04-06T09:56:42.938Z,99404.10
2019-04-06T09:59:36.012Z,99409.60
2019-04-06T10:02:23.144Z,99408.38
2019-04-06T10:05:14.276Z,99408.42
2019-04-06T10:08:14.236Z,99415.03
2019-04-06T10:10:54.093Z,99407.09
2019-04-06T10:13:29.863Z,99408.64
2019-04-06T10:16:24.158Z,99406.25
2019-04-06T10:19:00.078Z,99403.45
2019-04-06T10:21:57.193Z,99406.61
2019-04-06T10:24:43.960Z,99401.48
2019-04-06T10:27:37.929Z,99401.02
2019-04-06T10:30:29.664Z,99393.53
2019-04-06T10:33:23.659Z,99395.96
2019-04-06T10:36:10.298Z,99207.52
2019-04-06T10:39:01.408Z,99379.50
2019-04-06T10:41:52.619Z,99387.31
2019-04-06T10:44:37.927Z,99389.13
2019-04-06T10:47:14.706Z,99381.02
2019-04-06T10:50:05.829Z,99378.93
2019-04-06T10:53:00.000Z,99382.16
2019-04-06T10:55:54.305Z,99373.90
2019-04-06T10:58:48.554Z,99385.38
2019-04-06T11:01:32.271Z,99385.03
2019-04-06T11:04:10.948Z,99384.08
2019-04-06T11:06:53.212Z,99380.67
2019-04-06T11:09:42.764Z,99389.19
2019-04-06T11:12:33.867Z,99377.81
2019-04-06T11:15:28.202Z,99317.15
2019-04-06T11:18:15.641Z,99372.80
2019-04-06T11:21:03.741Z,99371.10
2019-04-06T11:24:01.080Z,99366.94
2019-04-06T11:26:39.136Z,99364.25
2019-04-06T11:29:33.269Z,99354.09
2019-04-06T11:32:12.556Z,99295.06
2019-04-06T11:35:09.579Z,99354.41
2019-04-06T11:37:57.709Z,99351.41
2019-04-06T11:40:54.789Z,99350.72
2019-04-06T11:43:44.778Z,99343.66
2019-04-06T11:46:25.844Z,99344.86
2019-04-06T11:49:07.938Z,99347.09
2019-04-06T11:51:50.719Z,99337.48
2019-04-06T11:54:37.525Z,99336.13
2019-04-06T11:57:15.603Z,99341.90
2019-04-06T12:00:03.737Z,99341.52
2019-04-06T12:02:51.998Z,99336.17
2019-04-06T12:05:46.044Z,99334.53
2019-04-06T12:08:27.277Z,99336.74
2019-04-06T12:11:21.598Z,99333.28
2019-04-06T12:14:22.021Z,99332.70
2019-04-06T12:17:04.160Z,99331.08
2019-04-06T12:19:56.823Z,99334.91
2019-04-06T12:22:54.142Z,99328.48
2019-04-06T12:25:42.407Z,99322.16
2019-04-06T12:28:36.411Z,99330.23
2019-04-06T12:31:30.991Z,99322.15
2019-04-06T12:34:19.184Z,99325.41
2019-04-06T12:36:58.755Z,99308.75
2019-04-06T12:39:52.554Z,99309.11
2019-04-06T12:42:33.971Z,99308.34
2019-04-06T12:45:22.088Z,99304.70
2019-04-06T12:48:05.351Z,99297.93
2019-04-06T12:50:53.487Z,99302.14
2019-04-06T12:53:35.729Z,99302.33
2019-04-06T12:56:20.207Z,99301.28
2019-04-06T12:58:58.632Z,99294.95
2019-04-06T13:01:45.458Z,99294.92
2019-04-06T13:04:36.418Z,99293.77
2019-04-06T13:07:24.650Z,99246.33
2019-04-06T13:10:14.430Z,99281.74
2019-04-06T13:13:05.609Z,99282.61
2019-04-06T13:15:52.473Z,99291.05
2019-04-06T13:18:43.391Z,99268.27
2019-04-06T13:21:40.341Z,99280.06
2019-04-06T13:24:28.437Z,99274.45
2019-04-06T13:27:16.555Z,99267.91
2019-04-06T13:30:04.653Z,99269.67
2019-04-06T13:33:08.439Z,99275.34
2019-04-06T13:36:02.462Z,99279.34
2019-04-06T13:38:47.816Z,99277.63
2019-04-06T13:41:29.288Z,99280.88
2019-04-06T13:44:05.351Z,99271.20
2019-04-06T13:46:57.326Z,99269.70
2019-04-06T13:49:45.630Z,99266.81
2019-04-06T13:52:23.262Z,99271.02
2019-04-06T13:55:06.645Z,99267.36
2019-04-06T13:58:06.983Z,99250.69
2019-04-06T14:00:55.127Z,99260.67
2019-04-06T14:03:51.972Z,99261.05
2019-04-06T14:06:45.970Z,99253.77
2019-04-06T14:09:34.314Z,99258.23
2019-04-06T14:12:21.098Z,99258.92
2019-04-06T14:15:12.062Z,99255.80
2019-04-06T14:18:02.976Z,99257.28
2019-04-06T14:20:51.155Z,99253.64
2019-04-06T14:23:28.649Z,99253.45
2019-04-06T14:26:13.291Z,99253.84
2019-04-06T14:28:49.777Z,99250.86
2019-04-06T14:31:47.129Z,99250.81
2019-04-06T14:34:38.384Z,99251.11
2019-04-06T14:37:16.242Z,99248.64
2019-04-06T14:39:59.803Z,99252.53
2019-04-06T14:42:42.072Z,99250.05
2019-04-06T14:45:27.485Z,99251.47
2019-04-06T14:48:14.383Z,99252.42
2019-04-06T14:50:57.595Z,99263.02
2019-04-06T14:53:41.228Z,99258.67
2019-04-06T14:56:28.748Z,99259.05
2019-04-06T14:59:35.064Z,99259.50
2019-04-06T15:02:19.867Z,99258.84
2019-04-06T15:05:07.984Z,99263.77
2019-04-06T15:07:57.038Z,99261.91
2019-04-06T15:10:38.576Z,99260.29
2019-04-06T15:13:45.201Z,99257.30
2019-04-06T15:16:23.978Z,99261.19
2019-04-06T15:19:18.240Z,99265.62
2019-04-06T15:21:57.394Z,99273.58
2019-04-06T15:24:57.772Z,99263.03
2019-04-06T15:27:46.180Z,99267.14
2019-04-06T15:30:43.694Z,99264.68
2019-04-06T15:33:25.636Z,99265.82
2019-04-06T15:36:12.856Z,99268.14
2019-04-06T15:38:51.155Z,99274.45
2019-04-06T15:41:35.927Z,99268.28
2019-04-06T15:44:33.271Z,99267.22
2019-04-06T15:47:20.392Z,99264.05
2019-04-06T15:50:20.707Z,99264.63
2019-04-06T15:53:16.162Z,99264.48
2019-04-06T15:56:10.138Z,99260.27
2019-04-06T15:58:47.367Z,99253.39
2019-04-06T16:01:38.618Z,99254.91
2019-04-06T16:04:39.048Z,99248.80
2019-04-06T16:07:33.534Z,99254.06
2019-04-06T16:10:24.956Z,99258.02
2019-04-06T16:13:02.536Z,99254.61
2019-04-06T16:15:59.794Z,99259.45
2019-04-06T16:19:00.057Z,99252.17
2019-04-06T16:21:48.411Z,99256.01
2019-04-06T16:24:27.710Z,99262.91
2019-04-06T16:27:18.730Z,99257.64
2019-04-06T16:29:55.277Z,99257.55
2019-04-06T16:32:46.270Z,99262.18
2019-04-06T16:35:41.999Z,99255.56
2019-04-06T16:38:28.647Z,99248.17
2019-04-06T16:41:19.834Z,99252.01
2019-04-06T16:44:23.619Z,99249.71
2019-04-06T16:47:15.131Z,99255.65
2019-04-06T16:50:02.906Z,99249.90
2019-04-06T16:52:51.074Z,99248.37
2019-04-06T16:55:45.791Z,99247.41
2019-04-06T16:58:26.203Z,99244.34
2019-04-06T17:01:13.417Z,99238.88
2019-04-06T17:03:55.659Z,99247.03
2019-04-06T17:06:38.020Z,99247.78
2019-04-06T17:09:16.492Z,99245.67
2019-04-06T17:12:03.926Z,99240.91
2019-04-06T17:14:50.584Z,99242.73
2019-04-06T17:17:38.690Z,99245.13
2019-04-06T17:20:25.867Z,99246.06
2019-04-06T17:23:17.063Z,99239.20
2019-04-06T17:25:52.285Z,99247.61
2019-04-06T17:28:34.694Z,99245.69
2019-04-06T17:31:35.371Z,99236.11
2019-04-06T17:34:26.326Z,99245.47
2019-04-06T17:37:09.382Z,99246.13
2019-04-06T17:39:47.132Z,99246.48
2019-04-06T17:42:34.212Z,99240.77
2019-04-06T17:45:23.764Z,99247.64
2019-04-06T17:48:18.385Z,99248.08
2019-04-06T17:51:06.628Z,99258.36
2019-04-06T17:54:09.731Z,99260.34
2019-04-06T17:57:03.792Z,99264.86
2019-04-06T17:59:57.824Z,99262.51
2019-04-06T18:03:04.739Z,99265.86
2019-04-06T18:06:10.925Z,99266.22
2019-04-06T18:08:50.411Z,99268.24
2019-04-06T18:11:34.053Z,99268.38
2019-04-06T18:14:03.257Z,99272.25
2019-04-06T18:16:35.314Z,99268.20
2019-04-06T18:19:04.891Z,99268.98
2019-04-06T18:21:34.553Z,99270.04
2019-04-06T18:24:03.723Z,99273.89
2019-04-06T18:26:32.917Z,99269.37
2019-04-06T18:29:02.046Z,99274.47
2019-04-06T18:31:45.836Z,99271.67
2019-04-06T18:34:14.971Z,99271.98
2019-04-06T18:37:06.025Z,99276.60
2019-04-06T18:39:35.647Z,99282.64
2019-04-06T18:42:05.281Z,99277.07
2019-04-06T18:44:34.497Z,99277.84
2019-04-06T18:47:03.690Z,99283.97
2019-04-06T18:49:33.166Z,99281.59
2019-04-06T18:52:02.864Z,99283.01
2019-04-06T18:54:32.193Z,99280.59
2019-04-06T18:57:01.427Z,99287.26
2019-04-06T18:59:30.563Z,99289.34
2019-04-06T19:01:59.722Z,99287.46
2019-04-06T19:04:29.335Z,99290.84
2019-04-06T19:06:58.489Z,99285.78
2019-04-06T19:09:28.092Z,99289.03
2019-04-06T19:11:57.482Z,99291.98
2019-04-06T19:14:26.971Z,99291.72
2019-04-06T19:16:56.975Z,99284.95
2019-04-06T19:19:26.189Z,99289.76
2019-04-06T19:21:55.616Z,99285.53
2019-04-06T19:24:24.917Z,99285.98
2019-04-06T19:26:54.177Z,99284.15
2019-04-06T19:29:23.834Z,99286.55
2019-04-06T19:31:53.427Z,99213.91
2019-04-06T19:34:22.559Z,99287.33
2019-04-06T19:36:52.171Z,99284.63
2019-04-06T19:39:21.457Z,99291.09
2019-04-06T19:41:51.064Z,99288.75
2019-04-06T19:44:20.419Z,99286.31
2019-04-06T19:46:49.523Z,99287.83
2019-04-06T19:49:18.700Z,99294.67
2019-04-06T19:51:47.828Z,99292.13
2019-04-06T19:54:17.561Z,99284.95
2019-04-06T19:56:46.750Z,99287.39
2019-04-06T19:59:16.346Z,99288.43
2019-04-06T20:01:45.820Z,99292.72
2019-04-06T20:04:15.102Z,99290.41
2019-04-06T20:06:44.254Z,99284.04
2019-04-06T20:09:13.517Z,99288.66
2019-04-06T20:11:42.599Z,99289.56
2019-04-06T20:14:11.962Z,99289.09
2019-04-06T20:16:41.172Z,99289.44
2019-04-06T20:19:10.291Z,99288.45
2019-04-06T20:21:39.770Z,99280.48
2019-04-06T20:24:09.551Z,99282.25
2019-04-06T20:26:39.905Z,99281.15
2019-04-06T20:29:09.184Z,99279.77
2019-04-06T20:31:38.347Z,99278.70
2019-04-06T20:34:07.467Z,99278.08
2019-04-06T20:36:36.635Z,99272.93
2019-04-06T20:39:08.800Z,99274.47
2019-04-06T20:41:38.134Z,99269.31
2019-04-06T20:44:07.666Z,99283.69
2019-04-06T20:46:36.878Z,99270.63
2019-04-06T20:49:06.661Z,99280.94
2019-04-06T20:51:35.927Z,99275.45
2019-04-06T20:54:05.348Z,99276.57
2019-04-06T20:56:35.052Z,99280.24
2019-04-06T20:59:04.273Z,99279.06
2019-04-06T21:01:33.527Z,99279.24
2019-04-06T21:04:03.234Z,99281.09
2019-04-06T21:06:32.556Z,99281.23
2019-04-06T21:09:02.159Z,99276.54
2019-04-06T21:11:31.438Z,99282.48
2019-04-06T21:14:00.545Z,99283.89
2019-04-06T21:16:29.840Z,99282.25
2019-04-06T21:18:58.992Z,99285.91
2019-04-06T21:21:28.103Z,99279.14
2019-04-06T21:23:57.384Z,99284.27
2019-04-06T21:26:26.505Z,99287.81
2019-04-06T21:28:55.642Z,99284.94
2019-04-06T21:31:25.316Z,99282.78
2019-04-06T21:33:54.997Z,99281.55
2019-04-06T21:36:24.364Z,99285.98
2019-04-06T21:38:53.852Z,99286.02
2019-04-06T21:41:23.084Z,99288.92
2019-04-06T21:43:52.271Z,99288.27
2019-04-06T21:46:21.488Z,99287.95
2019-04-06T21:48:51.043Z,99287.20
2019-04-06T21:51:20.161Z,99281.94
2019-04-06T21:53:49.297Z,99290.34
2019-04-06T21:56:19.086Z,99291.75
2019-04-06T21:58:48.496Z,99291.01
2019-04-06T22:01:19.784Z,99293.32
2019-04-06T22:03:49.571Z,99294.43
2019-04-06T22:06:19.379Z,99294.18
2019-04-06T22:08:48.560Z,99293.48
2019-04-06T22:11:17.816Z,99287.81
2019-04-06T22:13:47.417Z,99295.49
2019-04-06T22:16:16.676Z,99292.47
2019-04-06T22:18:45.892Z,99291.68
2019-04-06T22:21:14.953Z,99293.58
2019-04-06T22:23:45.737Z,99292.86
2019-04-06T22:26:15.098Z,99297.39
2019-04-06T22:28:44.339Z,99293.66
2019-04-06T22:31:13.445Z,99289.00
2019-04-06T22:33:42.605Z,99300.52
2019-04-06T22:36:12.343Z,99297.95
2019-04-06T22:38:41.640Z,99300.22
2019-04-06T22:41:10.734Z,99301.13
2019-04-06T22:43:39.975Z,99303.88
2019-04-06T22:46:09.302Z,99295.11
2019-04-06T22:48:39.229Z,99292.99
2019-04-06T22:51:08.577Z,99293.48
2019-04-06T22:53:37.776Z,99287.33
2019-04-06T22:56:06.914Z,99283.39
2019-04-06T22:58:36.053Z,99291.44
2019-04-06T23:01:10.700Z,99289.39
2019-04-06T23:03:56.530Z,99283.38
2019-04-06T23:06:30.260Z,99283.44
2019-04-06T23:08:59.552Z,99287.55
2019-04-06T23:11:28.758Z,99294.77
2019-04-06T23:13:57.930Z,99286.18
2019-04-06T23:16:27.645Z,99292.40
2019-04-06T23:18:57.158Z,99291.11
2019-04-06T23:21:26.845Z,99282.35
2019-04-06T23:23:55.994Z,99287.19
2019-04-06T23:26:25.170Z,99292.08
2019-04-06T23:28:54.991Z,99291.28
2019-04-06T23:31:24.352Z,99293.18
2019-04-06T23:33:54.150Z,99290.70
2019-04-06T23:36:23.737Z,99293.89
2019-04-06T23:38:52.845Z,99289.25
2019-04-06T23:41:21.995Z,99288.11
2019-04-06T23:43:51.125Z,99289.55
2019-04-06T23:46:20.287Z,99292.77
2019-04-06T23:48:49.859Z,99295.50
2019-04-06T23:51:19.133Z,99292.44
2019-04-06T23:53:48.268Z,99297.77
2019-04-06T23:56:17.408Z,99296.03
2019-04-06T23:58:47.121Z,99293.84
